sensor_id;sensor_type;location;lat;lon;timestamp;temperature;humidity
18287;DHT22;9269;50.838;12.094;2022-10-28T00:00:09;17.90;64.70
18287;DHT22;9269;50.838;12.094;2022-10-28T00:02:38;18.00;64.70
18287;DHT22;9269;50.838;12.094;2022-10-28T00:05:08;18.00;64.70
18287;DHT22;9269;50.838;12.094;2022-10-28T00:07:38;18.00;64.40
18287;DHT22;9269;50.838;12.094;2022-10-28T00:10:08;18.00;64.70
18287;DHT22;9269;50.838;12.094;2022-10-28T00:12:37;18.00;64.40
18287;DHT22;9269;50.838;12.094;2022-10-28T00:15:06;18.00;64.70
18287;DHT22;9269;50.838;12.094;2022-10-28T00:17:35;18.00;64.80
18287;DHT22;9269;50.838;12.094;2022-10-28T00:20:04;18.00;64.20
18287;DHT22;9269;50.838;12.094;2022-10-28T00:22:32;18.00;64.40
18287;DHT22;9269;50.838;12.094;2022-10-28T00:25:03;18.10;64.60
18287;DHT22;9269;50.838;12.094;2022-10-28T00:27:31;18.00;64.30
18287;DHT22;9269;50.838;12.094;2022-10-28T00:30:00;18.00;64.50
18287;DHT22;9269;50.838;12.094;2022-10-28T00:32:29;18.00;64.20
18287;DHT22;9269;50.838;12.094;2022-10-28T00:34:58;18.00;64.20
18287;DHT22;9269;50.838;12.094;2022-10-28T00:37:26;18.00;64.10
18287;DHT22;9269;50.838;12.094;2022-10-28T00:39:56;18.00;64.10
18287;DHT22;9269;50.838;12.094;2022-10-28T00:42:25;18.00;64.20
18287;DHT22;9269;50.838;12.094;2022-10-28T00:44:56;18.10;64.00
18287;DHT22;9269;50.838;12.094;2022-10-28T00:47:32;18.00;64.40
18287;DHT22;9269;50.838;12.094;2022-10-28T00:50:12;18.00;64.60
18287;DHT22;9269;50.838;12.094;2022-10-28T00:52:44;18.00;64.70
18287;DHT22;9269;50.838;12.094;2022-10-28T00:55:14;18.00;64.50
18287;DHT22;9269;50.838;12.094;2022-10-28T00:57:46;17.90;64.40
18287;DHT22;9269;50.838;12.094;2022-10-28T01:00:17;18.00;64.60
18287;DHT22;9269;50.838;12.094;2022-10-28T01:02:48;18.00;65.10
18287;DHT22;9269;50.838;12.094;2022-10-28T01:05:20;18.00;64.80
18287;DHT22;9269;50.838;12.094;2022-10-28T01:07:50;18.00;64.60
18287;DHT22;9269;50.838;12.094;2022-10-28T01:10:28;18.00;64.80
18287;DHT22;9269;50.838;12.094;2022-10-28T01:13:07;18.00;64.60
18287;DHT22;9269;50.838;12.094;2022-10-28T01:18:24;18.00;64.20
18287;DHT22;9269;50.838;12.094;2022-10-28T01:21:40;18.00;64.50
18287;DHT22;9269;50.838;12.094;2022-10-28T01:28:33;18.00;64.60
18287;DHT22;9269;50.838;12.094;2022-10-28T01:32:30;18.00;64.70
18287;DHT22;9269;50.838;12.094;2022-10-28T01:35:17;18.00;64.60
18287;DHT22;9269;50.838;12.094;2022-10-28T01:38:16;18.00;64.90
18287;DHT22;9269;50.838;12.094;2022-10-28T01:41:35;18.00;64.70
18287;DHT22;9269;50.838;12.094;2022-10-28T01:44:26;18.00;64.90
18287;DHT22;9269;50.838;12.094;2022-10-28T01:47:30;18.00;64.50
18287;DHT22;9269;50.838;12.094;2022-10-28T01:50:38;18.00;64.60
18287;DHT22;9269;50.838;12.094;2022-10-28T01:53:36;18.10;64.40
18287;DHT22;9269;50.838;12.094;2022-10-28T01:56:47;18.10;64.90
18287;DHT22;9269;50.838;12.094;2022-10-28T01:59:46;18.10;64.60
18287;DHT22;9269;50.838;12.094;2022-10-28T02:02:34;18.00;64.60
18287;DHT22;9269;50.838;12.094;2022-10-28T02:05:51;18.00;64.80
18287;DHT22;9269;50.838;12.094;2022-10-28T02:12:19;18.00;64.90
18287;DHT22;9269;50.838;12.094;2022-10-28T02:15:17;17.90;64.70
18287;DHT22;9269;50.838;12.094;2022-10-28T02:18:21;18.00;64.60
18287;DHT22;9269;50.838;12.094;2022-10-28T02:20:57;18.00;64.50
18287;DHT22;9269;50.838;12.094;2022-10-28T02:23:51;18.00;64.60
18287;DHT22;9269;50.838;12.094;2022-10-28T02:26:35;17.90;64.80
18287;DHT22;9269;50.838;12.094;2022-10-28T02:29:50;18.00;64.40
18287;DHT22;9269;50.838;12.094;2022-10-28T02:32:33;17.90;64.60
18287;DHT22;9269;50.838;12.094;2022-10-28T02:35:17;18.00;64.50
18287;DHT22;9269;50.838;12.094;2022-10-28T02:38:34;17.90;64.40
18287;DHT22;9269;50.838;12.094;2022-10-28T02:41:24;17.80;64.50
18287;DHT22;9269;50.838;12.094;2022-10-28T02:43:59;17.90;64.80
18287;DHT22;9269;50.838;12.094;2022-10-28T02:46:33;17.80;64.60
18287;DHT22;9269;50.838;12.094;2022-10-28T02:49:04;17.80;64.70
18287;DHT22;9269;50.838;12.094;2022-10-28T02:51:36;17.80;64.70
18287;DHT22;9269;50.838;12.094;2022-10-28T02:54:23;17.90;64.30
18287;DHT22;9269;50.838;12.094;2022-10-28T02:56:56;17.80;64.80
18287;DHT22;9269;50.838;12.094;2022-10-28T02:59:27;17.80;64.50
18287;DHT22;9269;50.838;12.094;2022-10-28T03:01:58;17.80;64.60
18287;DHT22;9269;50.838;12.094;2022-10-28T03:04:27;17.80;64.70
18287;DHT22;9269;50.838;12.094;2022-10-28T03:06:55;17.80;64.60
18287;DHT22;9269;50.838;12.094;2022-10-28T03:09:24;17.70;64.90
18287;DHT22;9269;50.838;12.094;2022-10-28T03:11:52;17.80;64.50
18287;DHT22;9269;50.838;12.094;2022-10-28T03:14:21;17.80;64.80
18287;DHT22;9269;50.838;12.094;2022-10-28T03:16:50;17.70;64.70
18287;DHT22;9269;50.838;12.094;2022-10-28T03:19:19;17.70;64.80
18287;DHT22;9269;50.838;12.094;2022-10-28T03:21:48;17.80;65.20
18287;DHT22;9269;50.838;12.094;2022-10-28T03:24:16;17.80;64.80
18287;DHT22;9269;50.838;12.094;2022-10-28T03:26:45;17.70;64.90
18287;DHT22;9269;50.838;12.094;2022-10-28T03:29:14;17.70;64.50
18287;DHT22;9269;50.838;12.094;2022-10-28T03:31:43;17.70;64.60
18287;DHT22;9269;50.838;12.094;2022-10-28T03:34:13;17.60;64.90
18287;DHT22;9269;50.838;12.094;2022-10-28T03:36:43;17.60;64.90
18287;DHT22;9269;50.838;12.094;2022-10-28T03:39:13;17.60;64.80
18287;DHT22;9269;50.838;12.094;2022-10-28T03:41:42;17.60;64.90
18287;DHT22;9269;50.838;12.094;2022-10-28T03:44:11;17.60;64.80
18287;DHT22;9269;50.838;12.094;2022-10-28T03:46:43;17.50;64.80
18287;DHT22;9269;50.838;12.094;2022-10-28T03:49:11;17.60;64.60
18287;DHT22;9269;50.838;12.094;2022-10-28T03:51:39;17.60;64.80
18287;DHT22;9269;50.838;12.094;2022-10-28T03:54:09;17.60;64.80
18287;DHT22;9269;50.838;12.094;2022-10-28T03:56:38;17.60;64.60
18287;DHT22;9269;50.838;12.094;2022-10-28T03:59:07;17.60;64.90
18287;DHT22;9269;50.838;12.094;2022-10-28T04:01:36;17.60;64.90
18287;DHT22;9269;50.838;12.094;2022-10-28T04:04:05;17.60;65.10
18287;DHT22;9269;50.838;12.094;2022-10-28T04:06:34;17.60;65.30
18287;DHT22;9269;50.838;12.094;2022-10-28T04:09:05;17.60;65.20
18287;DHT22;9269;50.838;12.094;2022-10-28T04:11:34;17.60;65.20
18287;DHT22;9269;50.838;12.094;2022-10-28T04:14:03;17.40;65.20
18287;DHT22;9269;50.838;12.094;2022-10-28T04:16:32;17.50;65.10
18287;DHT22;9269;50.838;12.094;2022-10-28T04:19:01;17.50;65.10
18287;DHT22;9269;50.838;12.094;2022-10-28T04:21:30;17.60;65.00
18287;DHT22;9269;50.838;12.094;2022-10-28T04:23:58;17.50;65.30
18287;DHT22;9269;50.838;12.094;2022-10-28T04:26:28;17.50;65.50
18287;DHT22;9269;50.838;12.094;2022-10-28T04:28:59;17.50;65.20
18287;DHT22;9269;50.838;12.094;2022-10-28T04:31:32;17.50;65.10
18287;DHT22;9269;50.838;12.094;2022-10-28T04:34:00;17.60;65.40
18287;DHT22;9269;50.838;12.094;2022-10-28T04:36:29;17.50;65.30
18287;DHT22;9269;50.838;12.094;2022-10-28T04:38:58;17.50;65.10
18287;DHT22;9269;50.838;12.094;2022-10-28T04:41:26;17.60;65.10
18287;DHT22;9269;50.838;12.094;2022-10-28T04:43:55;17.60;65.10
18287;DHT22;9269;50.838;12.094;2022-10-28T04:46:25;17.50;65.00
18287;DHT22;9269;50.838;12.094;2022-10-28T04:48:53;17.50;65.20
18287;DHT22;9269;50.838;12.094;2022-10-28T04:51:22;17.50;65.20
18287;DHT22;9269;50.838;12.094;2022-10-28T04:53:50;17.50;65.00
18287;DHT22;9269;50.838;12.094;2022-10-28T04:56:19;17.40;65.10
18287;DHT22;9269;50.838;12.094;2022-10-28T04:58:48;17.50;65.30
18287;DHT22;9269;50.838;12.094;2022-10-28T05:01:18;17.60;65.50
18287;DHT22;9269;50.838;12.094;2022-10-28T05:03:48;17.60;65.10
18287;DHT22;9269;50.838;12.094;2022-10-28T05:06:18;17.60;64.90
18287;DHT22;9269;50.838;12.094;2022-10-28T05:08:46;17.50;65.10
18287;DHT22;9269;50.838;12.094;2022-10-28T05:11:15;17.50;64.90
18287;DHT22;9269;50.838;12.094;2022-10-28T05:13:44;17.50;64.90
18287;DHT22;9269;50.838;12.094;2022-10-28T05:16:13;17.60;65.30
18287;DHT22;9269;50.838;12.094;2022-10-28T05:18:41;17.50;65.20
18287;DHT22;9269;50.838;12.094;2022-10-28T05:21:11;17.60;65.30
18287;DHT22;9269;50.838;12.094;2022-10-28T05:23:40;17.60;65.30
18287;DHT22;9269;50.838;12.094;2022-10-28T05:26:09;17.50;65.10
18287;DHT22;9269;50.838;12.094;2022-10-28T05:28:37;17.60;64.80
18287;DHT22;9269;50.838;12.094;2022-10-28T05:31:06;17.50;65.40
18287;DHT22;9269;50.838;12.094;2022-10-28T05:33:34;17.50;64.90
18287;DHT22;9269;50.838;12.094;2022-10-28T05:36:03;17.40;65.30
18287;DHT22;9269;50.838;12.094;2022-10-28T05:38:32;17.40;65.20
18287;DHT22;9269;50.838;12.094;2022-10-28T05:41:01;17.50;65.20
18287;DHT22;9269;50.838;12.094;2022-10-28T05:43:29;17.50;65.00
18287;DHT22;9269;50.838;12.094;2022-10-28T05:45:58;17.50;65.20
18287;DHT22;9269;50.838;12.094;2022-10-28T05:48:27;17.40;65.50
18287;DHT22;9269;50.838;12.094;2022-10-28T05:50:55;17.50;65.70
18287;DHT22;9269;50.838;12.094;2022-10-28T05:53:24;17.40;65.20
18287;DHT22;9269;50.838;12.094;2022-10-28T05:55:54;17.40;65.30
18287;DHT22;9269;50.838;12.094;2022-10-28T05:58:23;17.40;65.50
18287;DHT22;9269;50.838;12.094;2022-10-28T06:00:51;17.50;65.20
18287;DHT22;9269;50.838;12.094;2022-10-28T06:03:20;17.40;65.30
18287;DHT22;9269;50.838;12.094;2022-10-28T06:05:56;17.40;65.20
18287;DHT22;9269;50.838;12.094;2022-10-28T06:08:25;17.40;65.30
18287;DHT22;9269;50.838;12.094;2022-10-28T06:10:55;17.40;65.40
18287;DHT22;9269;50.838;12.094;2022-10-28T06:13:24;17.30;65.30
18287;DHT22;9269;50.838;12.094;2022-10-28T06:15:53;17.30;65.30
18287;DHT22;9269;50.838;12.094;2022-10-28T06:18:23;17.40;65.40
18287;DHT22;9269;50.838;12.094;2022-10-28T06:20:53;17.40;65.30
18287;DHT22;9269;50.838;12.094;2022-10-28T06:23:22;17.40;65.40
18287;DHT22;9269;50.838;12.094;2022-10-28T06:25:57;17.40;65.20
18287;DHT22;9269;50.838;12.094;2022-10-28T06:28:31;17.40;65.50
18287;DHT22;9269;50.838;12.094;2022-10-28T06:31:03;17.40;65.50
18287;DHT22;9269;50.838;12.094;2022-10-28T06:33:33;17.40;65.20
18287;DHT22;9269;50.838;12.094;2022-10-28T06:36:03;17.40;65.20
18287;DHT22;9269;50.838;12.094;2022-10-28T06:38:32;17.40;65.10
18287;DHT22;9269;50.838;12.094;2022-10-28T06:41:02;17.40;65.30
18287;DHT22;9269;50.838;12.094;2022-10-28T06:43:30;17.40;64.80
18287;DHT22;9269;50.838;12.094;2022-10-28T06:46:00;17.50;65.20
18287;DHT22;9269;50.838;12.094;2022-10-28T06:48:29;17.50;65.40
18287;DHT22;9269;50.838;12.094;2022-10-28T06:50:58;17.60;65.00
18287;DHT22;9269;50.838;12.094;2022-10-28T06:53:27;17.50;65.20
18287;DHT22;9269;50.838;12.094;2022-10-28T06:55:57;17.50;65.20
18287;DHT22;9269;50.838;12.094;2022-10-28T06:58:27;17.40;65.30
18287;DHT22;9269;50.838;12.094;2022-10-28T07:00:56;17.60;65.20
18287;DHT22;9269;50.838;12.094;2022-10-28T07:03:24;17.50;65.00
18287;DHT22;9269;50.838;12.094;2022-10-28T07:05:54;17.60;65.30
18287;DHT22;9269;50.838;12.094;2022-10-28T07:08:22;17.50;65.10
18287;DHT22;9269;50.838;12.094;2022-10-28T07:10:54;17.70;65.10
18287;DHT22;9269;50.838;12.094;2022-10-28T07:13:24;17.60;65.00
18287;DHT22;9269;50.838;12.094;2022-10-28T07:15:56;17.80;65.20
18287;DHT22;9269;50.838;12.094;2022-10-28T07:18:26;17.80;65.20
18287;DHT22;9269;50.838;12.094;2022-10-28T07:20:57;17.80;65.30
18287;DHT22;9269;50.838;12.094;2022-10-28T07:23:27;17.80;65.30
18287;DHT22;9269;50.838;12.094;2022-10-28T07:25:58;17.90;65.00
18287;DHT22;9269;50.838;12.094;2022-10-28T07:28:27;18.00;65.00
18287;DHT22;9269;50.838;12.094;2022-10-28T07:31:00;18.00;64.70
18287;DHT22;9269;50.838;12.094;2022-10-28T07:33:29;18.10;65.10
18287;DHT22;9269;50.838;12.094;2022-10-28T07:36:02;18.10;64.90
18287;DHT22;9269;50.838;12.094;2022-10-28T07:42:07;18.20;63.30
18287;DHT22;9269;50.838;12.094;2022-10-28T07:44:41;18.20;63.50
18287;DHT22;9269;50.838;12.094;2022-10-28T07:47:39;18.30;63.30
18287;DHT22;9269;50.838;12.094;2022-10-28T07:50:17;18.40;63.20
18287;DHT22;9269;50.838;12.094;2022-10-28T07:56:56;18.60;62.80
18287;DHT22;9269;50.838;12.094;2022-10-28T07:59:28;18.90;62.70
18287;DHT22;9269;50.838;12.094;2022-10-28T08:02:24;19.00;62.50
18287;DHT22;9269;50.838;12.094;2022-10-28T08:05:06;19.20;62.70
18287;DHT22;9269;50.838;12.094;2022-10-28T08:07:34;19.20;62.50
18287;DHT22;9269;50.838;12.094;2022-10-28T08:10:12;19.30;62.30
18287;DHT22;9269;50.838;12.094;2022-10-28T08:12:49;19.40;62.20
18287;DHT22;9269;50.838;12.094;2022-10-28T08:15:28;19.40;62.20
18287;DHT22;9269;50.838;12.094;2022-10-28T08:18:09;19.40;61.90
18287;DHT22;9269;50.838;12.094;2022-10-28T08:24:21;19.40;61.50
18287;DHT22;9269;50.838;12.094;2022-10-28T08:26:52;19.60;62.00
18287;DHT22;9269;50.838;12.094;2022-10-28T08:29:23;19.50;61.60
18287;DHT22;9269;50.838;12.094;2022-10-28T08:32:06;19.60;61.90
18287;DHT22;9269;50.838;12.094;2022-10-28T08:34:40;19.60;61.90
18287;DHT22;9269;50.838;12.094;2022-10-28T08:37:38;19.60;61.90
18287;DHT22;9269;50.838;12.094;2022-10-28T08:40:14;19.70;61.40
18287;DHT22;9269;50.838;12.094;2022-10-28T08:42:46;19.60;61.90
18287;DHT22;9269;50.838;12.094;2022-10-28T08:45:30;19.70;61.40
18287;DHT22;9269;50.838;12.094;2022-10-28T08:48:17;19.70;61.40
18287;DHT22;9269;50.838;12.094;2022-10-28T08:50:50;19.70;61.30
18287;DHT22;9269;50.838;12.094;2022-10-28T08:53:46;19.70;61.80
18287;DHT22;9269;50.838;12.094;2022-10-28T08:56:46;19.80;61.90
18287;DHT22;9269;50.838;12.094;2022-10-28T08:59:51;19.70;61.70
18287;DHT22;9269;50.838;12.094;2022-10-28T09:02:24;19.70;61.90
18287;DHT22;9269;50.838;12.094;2022-10-28T09:04:59;19.70;61.90
18287;DHT22;9269;50.838;12.094;2022-10-28T09:07:31;19.60;62.00
18287;DHT22;9269;50.838;12.094;2022-10-28T09:10:04;19.60;62.30
18287;DHT22;9269;50.838;12.094;2022-10-28T09:12:42;19.60;62.10
18287;DHT22;9269;50.838;12.094;2022-10-28T09:15:21;19.70;62.20
18287;DHT22;9269;50.838;12.094;2022-10-28T09:17:54;19.70;62.10
18287;DHT22;9269;50.838;12.094;2022-10-28T09:20:30;19.70;62.50
18287;DHT22;9269;50.838;12.094;2022-10-28T09:23:08;19.80;62.30
18287;DHT22;9269;50.838;12.094;2022-10-28T09:25:45;19.90;62.10
18287;DHT22;9269;50.838;12.094;2022-10-28T09:28:29;19.90;62.20
18287;DHT22;9269;50.838;12.094;2022-10-28T09:31:05;20.00;62.00
18287;DHT22;9269;50.838;12.094;2022-10-28T09:33:45;20.00;61.90
18287;DHT22;9269;50.838;12.094;2022-10-28T09:36:22;20.20;61.90
18287;DHT22;9269;50.838;12.094;2022-10-28T09:38:54;20.20;61.80
18287;DHT22;9269;50.838;12.094;2022-10-28T09:41:26;20.30;61.20
18287;DHT22;9269;50.838;12.094;2022-10-28T09:44:02;20.40;61.20
18287;DHT22;9269;50.838;12.094;2022-10-28T09:46:31;20.40;61.10
18287;DHT22;9269;50.838;12.094;2022-10-28T09:49:08;20.40;61.10
18287;DHT22;9269;50.838;12.094;2022-10-28T09:51:46;20.50;61.20
18287;DHT22;9269;50.838;12.094;2022-10-28T09:54:23;20.50;61.10
18287;DHT22;9269;50.838;12.094;2022-10-28T09:57:03;20.60;60.90
18287;DHT22;9269;50.838;12.094;2022-10-28T09:59:34;20.70;60.80
18287;DHT22;9269;50.838;12.094;2022-10-28T10:02:03;20.80;60.50
18287;DHT22;9269;50.838;12.094;2022-10-28T10:04:33;20.90;59.10
18287;DHT22;9269;50.838;12.094;2022-10-28T10:07:25;20.90;58.90
18287;DHT22;9269;50.838;12.094;2022-10-28T10:10:05;21.00;58.80
18287;DHT22;9269;50.838;12.094;2022-10-28T10:12:44;21.10;58.80
18287;DHT22;9269;50.838;12.094;2022-10-28T10:15:41;21.30;58.90
18287;DHT22;9269;50.838;12.094;2022-10-28T10:18:31;21.30;58.50
18287;DHT22;9269;50.838;12.094;2022-10-28T10:21:00;21.30;58.50
18287;DHT22;9269;50.838;12.094;2022-10-28T10:23:52;21.40;58.10
18287;DHT22;9269;50.838;12.094;2022-10-28T10:26:21;21.40;58.30
18287;DHT22;9269;50.838;12.094;2022-10-28T10:28:51;21.50;58.30
18287;DHT22;9269;50.838;12.094;2022-10-28T10:31:31;21.50;58.20
18287;DHT22;9269;50.838;12.094;2022-10-28T10:34:00;21.60;58.10
18287;DHT22;9269;50.838;12.094;2022-10-28T10:36:30;21.80;58.20
18287;DHT22;9269;50.838;12.094;2022-10-28T10:39:20;21.90;58.00
18287;DHT22;9269;50.838;12.094;2022-10-28T10:41:54;22.10;57.60
18287;DHT22;9269;50.838;12.094;2022-10-28T10:44:55;22.30;57.10
18287;DHT22;9269;50.838;12.094;2022-10-28T10:48:14;22.40;57.10
18287;DHT22;9269;50.838;12.094;2022-10-28T10:50:53;22.40;56.90
18287;DHT22;9269;50.838;12.094;2022-10-28T10:53:24;22.40;56.80
18287;DHT22;9269;50.838;12.094;2022-10-28T10:55:59;22.40;56.80
18287;DHT22;9269;50.838;12.094;2022-10-28T10:58:48;22.30;57.20
18287;DHT22;9269;50.838;12.094;2022-10-28T11:01:20;22.30;57.30
18287;DHT22;9269;50.838;12.094;2022-10-28T11:04:19;22.30;57.00
18287;DHT22;9269;50.838;12.094;2022-10-28T11:06:55;22.40;57.10
18287;DHT22;9269;50.838;12.094;2022-10-28T11:09:28;22.50;57.20
18287;DHT22;9269;50.838;12.094;2022-10-28T11:12:24;22.50;56.90
18287;DHT22;9269;50.838;12.094;2022-10-28T11:15:37;22.40;57.30
18287;DHT22;9269;50.838;12.094;2022-10-28T11:18:16;22.40;57.10
18287;DHT22;9269;50.838;12.094;2022-10-28T11:20:56;22.40;57.00
18287;DHT22;9269;50.838;12.094;2022-10-28T11:23:49;22.40;56.70
18287;DHT22;9269;50.838;12.094;2022-10-28T11:26:24;22.50;56.80
18287;DHT22;9269;50.838;12.094;2022-10-28T11:29:06;22.60;57.20
18287;DHT22;9269;50.838;12.094;2022-10-28T11:32:38;22.60;56.90
18287;DHT22;9269;50.838;12.094;2022-10-28T11:41:59;22.70;56.90
18287;DHT22;9269;50.838;12.094;2022-10-28T11:44:40;22.80;56.30
18287;DHT22;9269;50.838;12.094;2022-10-28T11:48:09;22.90;56.90
18287;DHT22;9269;50.838;12.094;2022-10-28T11:50:51;23.00;56.50
18287;DHT22;9269;50.838;12.094;2022-10-28T11:56:56;23.30;55.80
18287;DHT22;9269;50.838;12.094;2022-10-28T12:00:05;23.30;55.90
18287;DHT22;9269;50.838;12.094;2022-10-28T12:06:03;23.40;55.80
18287;DHT22;9269;50.838;12.094;2022-10-28T12:08:56;23.40;55.80
18287;DHT22;9269;50.838;12.094;2022-10-28T12:11:37;23.40;55.60
18287;DHT22;9269;50.838;12.094;2022-10-28T12:14:14;23.40;55.10
18287;DHT22;9269;50.838;12.094;2022-10-28T12:16:55;23.60;54.70
18287;DHT22;9269;50.838;12.094;2022-10-28T12:19:45;23.60;54.40
18287;DHT22;9269;50.838;12.094;2022-10-28T12:25:53;23.70;53.10
18287;DHT22;9269;50.838;12.094;2022-10-28T12:28:36;23.70;52.90
18287;DHT22;9269;50.838;12.094;2022-10-28T12:34:57;23.60;54.10
18287;DHT22;9269;50.838;12.094;2022-10-28T12:37:30;23.70;52.80
18287;DHT22;9269;50.838;12.094;2022-10-28T12:40:09;23.50;53.90
18287;DHT22;9269;50.838;12.094;2022-10-28T12:42:44;23.50;54.70
18287;DHT22;9269;50.838;12.094;2022-10-28T12:45:38;23.50;55.10
18287;DHT22;9269;50.838;12.094;2022-10-28T12:49:04;23.40;54.40
18287;DHT22;9269;50.838;12.094;2022-10-28T12:55:02;23.50;54.40
18287;DHT22;9269;50.838;12.094;2022-10-28T12:57:35;23.40;54.80
18287;DHT22;9269;50.838;12.094;2022-10-28T13:00:23;23.40;54.10
18287;DHT22;9269;50.838;12.094;2022-10-28T13:09:18;23.40;54.10
18287;DHT22;9269;50.838;12.094;2022-10-28T13:15:41;23.40;54.20
18287;DHT22;9269;50.838;12.094;2022-10-28T13:18:42;23.40;53.90
18287;DHT22;9269;50.838;12.094;2022-10-28T13:21:23;23.40;53.80
18287;DHT22;9269;50.838;12.094;2022-10-28T13:23:59;23.40;53.30
18287;DHT22;9269;50.838;12.094;2022-10-28T13:26:41;23.40;54.00
18287;DHT22;9269;50.838;12.094;2022-10-28T13:29:19;23.40;53.50
18287;DHT22;9269;50.838;12.094;2022-10-28T13:31:53;23.40;53.80
18287;DHT22;9269;50.838;12.094;2022-10-28T13:34:31;23.50;54.00
18287;DHT22;9269;50.838;12.094;2022-10-28T13:37:03;23.50;53.90
18287;DHT22;9269;50.838;12.094;2022-10-28T13:39:42;23.50;53.80
18287;DHT22;9269;50.838;12.094;2022-10-28T13:42:31;23.50;53.90
18287;DHT22;9269;50.838;12.094;2022-10-28T13:45:00;23.50;53.10
18287;DHT22;9269;50.838;12.094;2022-10-28T13:47:31;23.50;53.60
18287;DHT22;9269;50.838;12.094;2022-10-28T13:50:20;23.40;53.70
18287;DHT22;9269;50.838;12.094;2022-10-28T13:55:49;23.50;53.40
18287;DHT22;9269;50.838;12.094;2022-10-28T13:58:24;23.50;53.20
18287;DHT22;9269;50.838;12.094;2022-10-28T14:00:53;23.50;52.90
18287;DHT22;9269;50.838;12.094;2022-10-28T14:03:23;23.50;52.20
18287;DHT22;9269;50.838;12.094;2022-10-28T14:05:55;23.50;52.00
18287;DHT22;9269;50.838;12.094;2022-10-28T14:08:27;23.50;52.10
18287;DHT22;9269;50.838;12.094;2022-10-28T14:11:02;23.50;51.60
18287;DHT22;9269;50.838;12.094;2022-10-28T14:13:33;23.50;50.90
18287;DHT22;9269;50.838;12.094;2022-10-28T14:16:20;23.40;51.80
18287;DHT22;9269;50.838;12.094;2022-10-28T14:18:55;23.40;51.50
18287;DHT22;9269;50.838;12.094;2022-10-28T14:21:39;23.30;51.30
18287;DHT22;9269;50.838;12.094;2022-10-28T14:24:12;23.30;51.30
18287;DHT22;9269;50.838;12.094;2022-10-28T14:30:30;23.20;51.40
18287;DHT22;9269;50.838;12.094;2022-10-28T14:33:15;23.10;50.90
18287;DHT22;9269;50.838;12.094;2022-10-28T14:35:51;23.10;51.00
18287;DHT22;9269;50.838;12.094;2022-10-28T14:38:56;23.10;50.80
18287;DHT22;9269;50.838;12.094;2022-10-28T14:41:57;23.00;50.70
18287;DHT22;9269;50.838;12.094;2022-10-28T14:44:41;23.00;50.80
18287;DHT22;9269;50.838;12.094;2022-10-28T14:47:28;23.00;50.50
18287;DHT22;9269;50.838;12.094;2022-10-28T14:50:01;23.00;50.40
18287;DHT22;9269;50.838;12.094;2022-10-28T14:52:35;23.00;50.90
18287;DHT22;9269;50.838;12.094;2022-10-28T14:55:07;22.90;50.20
18287;DHT22;9269;50.838;12.094;2022-10-28T14:57:43;22.90;50.30
18287;DHT22;9269;50.838;12.094;2022-10-28T15:00:17;22.90;49.70
18287;DHT22;9269;50.838;12.094;2022-10-28T15:02:46;22.90;50.00
18287;DHT22;9269;50.838;12.094;2022-10-28T15:05:17;22.80;49.90
18287;DHT22;9269;50.838;12.094;2022-10-28T15:07:47;22.90;49.80
18287;DHT22;9269;50.838;12.094;2022-10-28T15:10:18;22.80;50.10
18287;DHT22;9269;50.838;12.094;2022-10-28T15:12:49;22.90;50.00
18287;DHT22;9269;50.838;12.094;2022-10-28T15:15:19;22.80;50.00
18287;DHT22;9269;50.838;12.094;2022-10-28T15:17:51;22.80;49.80
18287;DHT22;9269;50.838;12.094;2022-10-28T15:20:23;22.80;50.00
18287;DHT22;9269;50.838;12.094;2022-10-28T15:23:10;22.80;49.60
18287;DHT22;9269;50.838;12.094;2022-10-28T15:25:39;22.70;49.90
18287;DHT22;9269;50.838;12.094;2022-10-28T15:28:09;22.70;49.90
18287;DHT22;9269;50.838;12.094;2022-10-28T15:30:41;22.60;49.90
18287;DHT22;9269;50.838;12.094;2022-10-28T15:33:20;22.60;50.00
18287;DHT22;9269;50.838;12.094;2022-10-28T15:36:06;22.50;50.30
18287;DHT22;9269;50.838;12.094;2022-10-28T15:38:49;22.50;50.30
18287;DHT22;9269;50.838;12.094;2022-10-28T15:41:41;22.50;50.50
18287;DHT22;9269;50.838;12.094;2022-10-28T15:44:33;22.30;50.40
18287;DHT22;9269;50.838;12.094;2022-10-28T15:47:23;22.40;50.60
18287;DHT22;9269;50.838;12.094;2022-10-28T15:49:59;22.30;50.60
18287;DHT22;9269;50.838;12.094;2022-10-28T15:52:40;22.20;51.30
18287;DHT22;9269;50.838;12.094;2022-10-28T15:55:31;22.10;50.80
18287;DHT22;9269;50.838;12.094;2022-10-28T15:58:31;22.00;50.90
18287;DHT22;9269;50.838;12.094;2022-10-28T16:01:01;22.00;51.00
18287;DHT22;9269;50.838;12.094;2022-10-28T16:03:41;21.90;50.50
18287;DHT22;9269;50.838;12.094;2022-10-28T16:06:21;21.80;50.90
18287;DHT22;9269;50.838;12.094;2022-10-28T16:09:11;21.80;50.90
18287;DHT22;9269;50.838;12.094;2022-10-28T16:11:45;21.70;51.50
18287;DHT22;9269;50.838;12.094;2022-10-28T16:14:34;21.70;51.00
18287;DHT22;9269;50.838;12.094;2022-10-28T16:17:05;21.70;51.10
18287;DHT22;9269;50.838;12.094;2022-10-28T16:19:38;21.70;51.10
18287;DHT22;9269;50.838;12.094;2022-10-28T16:22:11;21.70;50.80
18287;DHT22;9269;50.838;12.094;2022-10-28T16:24:40;21.50;50.90
18287;DHT22;9269;50.838;12.094;2022-10-28T16:27:18;21.60;51.20
18287;DHT22;9269;50.838;12.094;2022-10-28T16:29:48;21.50;51.20
18287;DHT22;9269;50.838;12.094;2022-10-28T16:32:18;21.50;51.30
18287;DHT22;9269;50.838;12.094;2022-10-28T16:34:47;21.50;51.40
18287;DHT22;9269;50.838;12.094;2022-10-28T16:37:20;21.40;51.10
18287;DHT22;9269;50.838;12.094;2022-10-28T16:39:49;21.40;51.00
18287;DHT22;9269;50.838;12.094;2022-10-28T16:42:20;21.40;51.40
18287;DHT22;9269;50.838;12.094;2022-10-28T16:44:50;21.30;51.30
18287;DHT22;9269;50.838;12.094;2022-10-28T16:47:20;21.30;51.20
18287;DHT22;9269;50.838;12.094;2022-10-28T16:49:49;21.40;51.30
18287;DHT22;9269;50.838;12.094;2022-10-28T16:52:25;21.30;51.40
18287;DHT22;9269;50.838;12.094;2022-10-28T16:54:58;21.20;51.30
18287;DHT22;9269;50.838;12.094;2022-10-28T16:57:48;21.20;51.30
18287;DHT22;9269;50.838;12.094;2022-10-28T17:00:17;21.20;51.60
18287;DHT22;9269;50.838;12.094;2022-10-28T17:02:48;21.20;51.60
18287;DHT22;9269;50.838;12.094;2022-10-28T17:05:19;21.10;51.50
18287;DHT22;9269;50.838;12.094;2022-10-28T17:07:49;21.10;51.60
18287;DHT22;9269;50.838;12.094;2022-10-28T17:10:26;21.10;51.40
18287;DHT22;9269;50.838;12.094;2022-10-28T17:12:56;21.00;51.40
18287;DHT22;9269;50.838;12.094;2022-10-28T17:15:25;21.10;51.60
18287;DHT22;9269;50.838;12.094;2022-10-28T17:17:54;21.00;51.70
18287;DHT22;9269;50.838;12.094;2022-10-28T17:20:24;21.00;51.60
18287;DHT22;9269;50.838;12.094;2022-10-28T17:22:52;21.00;51.40
18287;DHT22;9269;50.838;12.094;2022-10-28T17:25:27;20.90;52.40
18287;DHT22;9269;50.838;12.094;2022-10-28T17:28:00;20.90;51.50
18287;DHT22;9269;50.838;12.094;2022-10-28T17:30:32;20.90;51.60
18287;DHT22;9269;50.838;12.094;2022-10-28T17:33:00;20.90;51.60